sensor_id;sensor_type;location;lat;lon;timestamp;temperature;humidity
22002;DHT22;11165;51.278;12.398;2022-07-29T00:01:34;18.10;94.90
22002;DHT22;11165;51.278;12.398;2022-07-29T00:03:59;18.10;94.90
22002;DHT22;11165;51.278;12.398;2022-07-29T00:06:25;18.10;94.90
22002;DHT22;11165;51.278;12.398;2022-07-29T00:08:50;18.10;95.10
22002;DHT22;11165;51.278;12.398;2022-07-29T00:11:16;18.10;95.10
22002;DHT22;11165;51.278;12.398;2022-07-29T00:13:42;18.00;95.50
22002;DHT22;11165;51.278;12.398;2022-07-29T00:16:07;18.00;95.80
22002;DHT22;11165;51.278;12.398;2022-07-29T00:18:33;18.00;96.20
22002;DHT22;11165;51.278;12.398;2022-07-29T00:20:59;18.00;96.20
22002;DHT22;11165;51.278;12.398;2022-07-29T00:23:24;18.00;96.20
22002;DHT22;11165;51.278;12.398;2022-07-29T00:25:50;18.00;96.40
22002;DHT22;11165;51.278;12.398;2022-07-29T00:28:16;18.00;96.50
22002;DHT22;11165;51.278;12.398;2022-07-29T00:30:41;18.00;96.80
22002;DHT22;11165;51.278;12.398;2022-07-29T00:33:08;17.90;97.00
22002;DHT22;11165;51.278;12.398;2022-07-29T00:35:34;17.90;97.20
22002;DHT22;11165;51.278;12.398;2022-07-29T00:38:09;17.90;97.30
22002;DHT22;11165;51.278;12.398;2022-07-29T00:40:35;17.90;97.80
22002;DHT22;11165;51.278;12.398;2022-07-29T00:43:00;17.90;97.90
22002;DHT22;11165;51.278;12.398;2022-07-29T00:45:27;17.90;98.00
22002;DHT22;11165;51.278;12.398;2022-07-29T00:47:52;17.80;98.30
22002;DHT22;11165;51.278;12.398;2022-07-29T00:50:18;17.80;98.40
22002;DHT22;11165;51.278;12.398;2022-07-29T00:52:44;17.80;98.60
22002;DHT22;11165;51.278;12.398;2022-07-29T00:55:15;17.80;98.70
22002;DHT22;11165;51.278;12.398;2022-07-29T00:57:42;17.80;98.70
22002;DHT22;11165;51.278;12.398;2022-07-29T01:00:10;17.80;99.20
22002;DHT22;11165;51.278;12.398;2022-07-29T01:02:36;17.80;99.10
22002;DHT22;11165;51.278;12.398;2022-07-29T01:05:04;17.80;99.10
22002;DHT22;11165;51.278;12.398;2022-07-29T01:07:30;17.80;99.40
22002;DHT22;11165;51.278;12.398;2022-07-29T01:09:58;17.80;99.70
22002;DHT22;11165;51.278;12.398;2022-07-29T01:12:28;17.70;99.90
22002;DHT22;11165;51.278;12.398;2022-07-29T01:14:58;17.70;99.90
22002;DHT22;11165;51.278;12.398;2022-07-29T01:17:34;17.70;99.90
22002;DHT22;11165;51.278;12.398;2022-07-29T01:31:07;17.60;99.90
22002;DHT22;11165;51.278;12.398;2022-07-29T01:33:36;17.60;99.90
22002;DHT22;11165;51.278;12.398;2022-07-29T01:39:14;17.50;99.90
22002;DHT22;11165;51.278;12.398;2022-07-29T01:41:51;17.50;99.90
22002;DHT22;11165;51.278;12.398;2022-07-29T01:44:31;17.50;99.90
22002;DHT22;11165;51.278;12.398;2022-07-29T01:47:02;17.40;99.90
22002;DHT22;11165;51.278;12.398;2022-07-29T01:49:31;17.40;99.90
22002;DHT22;11165;51.278;12.398;2022-07-29T01:52:05;17.40;99.90
22002;DHT22;11165;51.278;12.398;2022-07-29T01:54:37;17.40;99.90
22002;DHT22;11165;51.278;12.398;2022-07-29T01:57:05;17.30;99.90
22002;DHT22;11165;51.278;12.398;2022-07-29T01:59:34;17.30;99.90
22002;DHT22;11165;51.278;12.398;2022-07-29T02:02:00;17.30;99.90
22002;DHT22;11165;51.278;12.398;2022-07-29T02:04:27;17.30;99.90
22002;DHT22;11165;51.278;12.398;2022-07-29T02:06:54;17.30;99.90
22002;DHT22;11165;51.278;12.398;2022-07-29T02:09:23;17.30;99.90
22002;DHT22;11165;51.278;12.398;2022-07-29T02:11:53;17.30;99.90
22002;DHT22;11165;51.278;12.398;2022-07-29T02:14:20;17.30;99.90
22002;DHT22;11165;51.278;12.398;2022-07-29T02:16:48;17.30;99.90
22002;DHT22;11165;51.278;12.398;2022-07-29T02:19:17;17.20;99.90
22002;DHT22;11165;51.278;12.398;2022-07-29T02:21:44;17.20;99.90
22002;DHT22;11165;51.278;12.398;2022-07-29T02:24:11;17.20;99.90
22002;DHT22;11165;51.278;12.398;2022-07-29T02:26:39;17.20;99.90
22002;DHT22;11165;51.278;12.398;2022-07-29T02:29:06;17.20;99.90
22002;DHT22;11165;51.278;12.398;2022-07-29T02:31:34;17.20;99.90
22002;DHT22;11165;51.278;12.398;2022-07-29T02:34:07;17.10;99.90
22002;DHT22;11165;51.278;12.398;2022-07-29T02:36:34;17.10;99.90
22002;DHT22;11165;51.278;12.398;2022-07-29T02:39:00;17.10;99.90
22002;DHT22;11165;51.278;12.398;2022-07-29T02:41:42;17.10;99.90
22002;DHT22;11165;51.278;12.398;2022-07-29T02:44:14;17.10;99.90
22002;DHT22;11165;51.278;12.398;2022-07-29T02:46:42;17.00;99.90
22002;DHT22;11165;51.278;12.398;2022-07-29T02:51:51;17.00;99.90
22002;DHT22;11165;51.278;12.398;2022-07-29T02:56:57;17.00;99.90
22002;DHT22;11165;51.278;12.398;2022-07-29T02:59:26;16.90;99.90
22002;DHT22;11165;51.278;12.398;2022-07-29T03:01:54;16.90;99.90
22002;DHT22;11165;51.278;12.398;2022-07-29T03:04:22;16.90;99.90
22002;DHT22;11165;51.278;12.398;2022-07-29T03:06:51;16.90;99.90
22002;DHT22;11165;51.278;12.398;2022-07-29T03:09:18;16.90;99.90
22002;DHT22;11165;51.278;12.398;2022-07-29T03:11:44;16.80;99.90
22002;DHT22;11165;51.278;12.398;2022-07-29T03:14:09;16.80;99.90
22002;DHT22;11165;51.278;12.398;2022-07-29T03:16:36;16.80;99.90
22002;DHT22;11165;51.278;12.398;2022-07-29T03:19:02;16.80;99.90
22002;DHT22;11165;51.278;12.398;2022-07-29T03:21:28;16.70;99.90
22002;DHT22;11165;51.278;12.398;2022-07-29T03:23:54;16.70;99.90
22002;DHT22;11165;51.278;12.398;2022-07-29T03:26:19;16.70;99.90
22002;DHT22;11165;51.278;12.398;2022-07-29T03:28:45;16.60;99.90
22002;DHT22;11165;51.278;12.398;2022-07-29T03:31:11;16.60;99.90
22002;DHT22;11165;51.278;12.398;2022-07-29T03:33:36;16.70;99.90
22002;DHT22;11165;51.278;12.398;2022-07-29T03:36:02;16.60;99.90
22002;DHT22;11165;51.278;12.398;2022-07-29T03:38:30;16.60;99.90
22002;DHT22;11165;51.278;12.398;2022-07-29T03:41:01;16.60;99.90
22002;DHT22;11165;51.278;12.398;2022-07-29T03:43:32;16.60;99.90
22002;DHT22;11165;51.278;12.398;2022-07-29T03:45:59;16.60;99.90
22002;DHT22;11165;51.278;12.398;2022-07-29T03:48:26;16.60;99.90
22002;DHT22;11165;51.278;12.398;2022-07-29T03:50:55;16.60;99.90
22002;DHT22;11165;51.278;12.398;2022-07-29T03:53:21;16.60;99.90
22002;DHT22;11165;51.278;12.398;2022-07-29T03:55:53;16.60;99.90
22002;DHT22;11165;51.278;12.398;2022-07-29T03:58:20;16.60;99.90
22002;DHT22;11165;51.278;12.398;2022-07-29T04:00:46;16.50;99.90
22002;DHT22;11165;51.278;12.398;2022-07-29T04:03:12;16.60;99.90
22002;DHT22;11165;51.278;12.398;2022-07-29T04:05:38;16.60;99.90
22002;DHT22;11165;51.278;12.398;2022-07-29T04:08:04;16.50;99.90
22002;DHT22;11165;51.278;12.398;2022-07-29T04:10:29;16.50;99.90
22002;DHT22;11165;51.278;12.398;2022-07-29T04:12:55;16.60;99.90
22002;DHT22;11165;51.278;12.398;2022-07-29T04:15:21;16.50;99.90
22002;DHT22;11165;51.278;12.398;2022-07-29T04:17:46;16.60;99.90
22002;DHT22;11165;51.278;12.398;2022-07-29T04:20:12;16.60;99.90
22002;DHT22;11165;51.278;12.398;2022-07-29T04:22:39;16.50;99.90
22002;DHT22;11165;51.278;12.398;2022-07-29T04:25:05;16.60;99.90
22002;DHT22;11165;51.278;12.398;2022-07-29T04:27:30;16.50;99.90
22002;DHT22;11165;51.278;12.398;2022-07-29T04:29:56;16.60;99.90
22002;DHT22;11165;51.278;12.398;2022-07-29T04:32:22;16.60;99.90
22002;DHT22;11165;51.278;12.398;2022-07-29T04:34:47;16.60;99.90
22002;DHT22;11165;51.278;12.398;2022-07-29T04:37:13;16.60;99.90
22002;DHT22;11165;51.278;12.398;2022-07-29T04:39:38;16.60;99.90
22002;DHT22;11165;51.278;12.398;2022-07-29T04:42:04;16.70;99.90
22002;DHT22;11165;51.278;12.398;2022-07-29T04:44:30;16.70;99.90
22002;DHT22;11165;51.278;12.398;2022-07-29T04:46:56;16.80;99.90
22002;DHT22;11165;51.278;12.398;2022-07-29T04:49:22;16.80;99.90
22002;DHT22;11165;51.278;12.398;2022-07-29T04:51:48;16.80;99.90
22002;DHT22;11165;51.278;12.398;2022-07-29T04:54:14;16.80;99.90
22002;DHT22;11165;51.278;12.398;2022-07-29T04:56:39;16.80;99.90
22002;DHT22;11165;51.278;12.398;2022-07-29T04:59:05;16.80;99.90
22002;DHT22;11165;51.278;12.398;2022-07-29T05:01:30;16.80;99.90
22002;DHT22;11165;51.278;12.398;2022-07-29T05:03:56;16.90;99.90
22002;DHT22;11165;51.278;12.398;2022-07-29T05:06:21;16.90;99.90
22002;DHT22;11165;51.278;12.398;2022-07-29T05:08:47;17.00;99.90
22002;DHT22;11165;51.278;12.398;2022-07-29T05:11:12;17.00;99.90
22002;DHT22;11165;51.278;12.398;2022-07-29T05:13:38;17.00;99.90
22002;DHT22;11165;51.278;12.398;2022-07-29T05:16:04;17.00;99.90
22002;DHT22;11165;51.278;12.398;2022-07-29T05:18:30;17.10;99.90
22002;DHT22;11165;51.278;12.398;2022-07-29T05:20:55;17.10;99.90
22002;DHT22;11165;51.278;12.398;2022-07-29T05:23:21;17.20;99.90
22002;DHT22;11165;51.278;12.398;2022-07-29T05:25:47;17.30;99.90
22002;DHT22;11165;51.278;12.398;2022-07-29T05:28:12;17.30;99.90
22002;DHT22;11165;51.278;12.398;2022-07-29T05:30:38;17.40;99.90
22002;DHT22;11165;51.278;12.398;2022-07-29T05:33:03;17.40;99.90
22002;DHT22;11165;51.278;12.398;2022-07-29T05:35:29;17.40;99.90
22002;DHT22;11165;51.278;12.398;2022-07-29T05:37:54;17.50;99.90
22002;DHT22;11165;51.278;12.398;2022-07-29T05:40:20;17.50;99.90
22002;DHT22;11165;51.278;12.398;2022-07-29T05:42:45;17.50;99.90
22002;DHT22;11165;51.278;12.398;2022-07-29T05:45:11;17.40;99.90
22002;DHT22;11165;51.278;12.398;2022-07-29T05:47:36;17.50;99.90
22002;DHT22;11165;51.278;12.398;2022-07-29T05:50:02;17.50;99.90
22002;DHT22;11165;51.278;12.398;2022-07-29T05:52:29;17.70;99.90
22002;DHT22;11165;51.278;12.398;2022-07-29T05:54:54;17.70;99.90
22002;DHT22;11165;51.278;12.398;2022-07-29T05:57:22;17.70;99.90
22002;DHT22;11165;51.278;12.398;2022-07-29T05:59:49;17.80;99.90
22002;DHT22;11165;51.278;12.398;2022-07-29T06:02:15;17.90;99.90
22002;DHT22;11165;51.278;12.398;2022-07-29T06:04:41;18.10;99.90
22002;DHT22;11165;51.278;12.398;2022-07-29T06:07:06;18.00;99.90
22002;DHT22;11165;51.278;12.398;2022-07-29T06:09:32;18.00;99.90
22002;DHT22;11165;51.278;12.398;2022-07-29T06:11:58;18.00;99.90
22002;DHT22;11165;51.278;12.398;2022-07-29T06:14:24;18.10;99.90
22002;DHT22;11165;51.278;12.398;2022-07-29T06:16:50;18.20;99.90
22002;DHT22;11165;51.278;12.398;2022-07-29T06:19:15;18.10;99.90
22002;DHT22;11165;51.278;12.398;2022-07-29T06:21:42;18.10;99.90
22002;DHT22;11165;51.278;12.398;2022-07-29T06:24:07;18.20;99.90
22002;DHT22;11165;51.278;12.398;2022-07-29T06:26:33;18.20;99.90
22002;DHT22;11165;51.278;12.398;2022-07-29T06:28:58;18.30;99.90
22002;DHT22;11165;51.278;12.398;2022-07-29T06:31:24;18.40;99.90
22002;DHT22;11165;51.278;12.398;2022-07-29T06:33:50;18.40;99.90
22002;DHT22;11165;51.278;12.398;2022-07-29T06:36:15;18.40;99.90
22002;DHT22;11165;51.278;12.398;2022-07-29T06:38:41;18.50;99.90
22002;DHT22;11165;51.278;12.398;2022-07-29T06:41:08;18.60;99.90
22002;DHT22;11165;51.278;12.398;2022-07-29T06:43:40;18.70;99.90
22002;DHT22;11165;51.278;12.398;2022-07-29T06:46:11;18.70;99.90
22002;DHT22;11165;51.278;12.398;2022-07-29T06:48:38;18.70;99.90
22002;DHT22;11165;51.278;12.398;2022-07-29T06:51:05;18.80;99.90
22002;DHT22;11165;51.278;12.398;2022-07-29T06:53:31;18.90;99.90
22002;DHT22;11165;51.278;12.398;2022-07-29T06:55:58;18.80;99.90
22002;DHT22;11165;51.278;12.398;2022-07-29T06:58:25;18.90;99.90
22002;DHT22;11165;51.278;12.398;2022-07-29T07:00:51;19.00;99.90
22002;DHT22;11165;51.278;12.398;2022-07-29T07:03:17;19.20;99.90
22002;DHT22;11165;51.278;12.398;2022-07-29T07:05:43;19.30;99.90
22002;DHT22;11165;51.278;12.398;2022-07-29T07:08:09;19.90;99.90
22002;DHT22;11165;51.278;12.398;2022-07-29T07:10:35;20.10;99.90
22002;DHT22;11165;51.278;12.398;2022-07-29T07:13:01;20.50;99.90
22002;DHT22;11165;51.278;12.398;2022-07-29T07:15:28;21.10;99.90
22002;DHT22;11165;51.278;12.398;2022-07-29T07:17:53;21.90;99.00
22002;DHT22;11165;51.278;12.398;2022-07-29T07:20:19;22.20;96.50
22002;DHT22;11165;51.278;12.398;2022-07-29T07:22:45;22.40;96.00
22002;DHT22;11165;51.278;12.398;2022-07-29T07:25:12;22.10;95.40
22002;DHT22;11165;51.278;12.398;2022-07-29T07:27:38;22.00;95.30
22002;DHT22;11165;51.278;12.398;2022-07-29T07:30:05;22.10;94.80
22002;DHT22;11165;51.278;12.398;2022-07-29T07:32:34;22.10;94.30
22002;DHT22;11165;51.278;12.398;2022-07-29T07:35:00;21.50;95.20
22002;DHT22;11165;51.278;12.398;2022-07-29T07:37:26;21.30;96.30
22002;DHT22;11165;51.278;12.398;2022-07-29T07:39:52;21.60;95.80
22002;DHT22;11165;51.278;12.398;2022-07-29T07:42:18;22.00;95.70
22002;DHT22;11165;51.278;12.398;2022-07-29T07:44:43;22.80;92.20
22002;DHT22;11165;51.278;12.398;2022-07-29T07:47:11;22.80;93.00
22002;DHT22;11165;51.278;12.398;2022-07-29T07:49:36;23.00;91.20
22002;DHT22;11165;51.278;12.398;2022-07-29T07:52:03;23.30;91.00
22002;DHT22;11165;51.278;12.398;2022-07-29T07:54:28;24.20;89.50
22002;DHT22;11165;51.278;12.398;2022-07-29T07:56:54;24.50;83.10
22002;DHT22;11165;51.278;12.398;2022-07-29T07:59:20;25.00;80.40
22002;DHT22;11165;51.278;12.398;2022-07-29T08:01:45;24.10;84.20
22002;DHT22;11165;51.278;12.398;2022-07-29T08:04:11;24.10;82.50
22002;DHT22;11165;51.278;12.398;2022-07-29T08:06:36;25.00;79.70
22002;DHT22;11165;51.278;12.398;2022-07-29T08:09:03;26.20;75.50
22002;DHT22;11165;51.278;12.398;2022-07-29T08:11:30;25.30;74.00
22002;DHT22;11165;51.278;12.398;2022-07-29T08:13:56;25.20;76.20
22002;DHT22;11165;51.278;12.398;2022-07-29T08:16:21;26.20;71.70
22002;DHT22;11165;51.278;12.398;2022-07-29T08:18:47;26.80;69.80
22002;DHT22;11165;51.278;12.398;2022-07-29T08:21:17;26.80;69.70
22002;DHT22;11165;51.278;12.398;2022-07-29T08:23:44;26.10;70.60
22002;DHT22;11165;51.278;12.398;2022-07-29T08:26:13;26.90;68.90
22002;DHT22;11165;51.278;12.398;2022-07-29T08:28:39;27.30;66.90
22002;DHT22;11165;51.278;12.398;2022-07-29T08:31:06;27.70;65.60
22002;DHT22;11165;51.278;12.398;2022-07-29T08:33:32;26.90;66.90
22002;DHT22;11165;51.278;12.398;2022-07-29T08:35:58;26.60;68.70
22002;DHT22;11165;51.278;12.398;2022-07-29T08:38:24;27.40;66.00
22002;DHT22;11165;51.278;12.398;2022-07-29T08:40:52;27.60;64.50
22002;DHT22;11165;51.278;12.398;2022-07-29T08:43:18;26.90;66.50
22002;DHT22;11165;51.278;12.398;2022-07-29T08:45:49;27.20;67.00
22002;DHT22;11165;51.278;12.398;2022-07-29T08:48:23;27.70;64.30
22002;DHT22;11165;51.278;12.398;2022-07-29T08:50:56;27.30;63.50
22002;DHT22;11165;51.278;12.398;2022-07-29T08:53:24;27.20;65.30
22002;DHT22;11165;51.278;12.398;2022-07-29T08:55:52;27.30;63.50
22002;DHT22;11165;51.278;12.398;2022-07-29T08:58:18;27.20;65.10
22002;DHT22;11165;51.278;12.398;2022-07-29T09:00:55;26.70;63.90
22002;DHT22;11165;51.278;12.398;2022-07-29T09:03:24;26.70;65.30
22002;DHT22;11165;51.278;12.398;2022-07-29T09:05:50;26.50;66.70
22002;DHT22;11165;51.278;12.398;2022-07-29T09:08:17;26.60;65.50
22002;DHT22;11165;51.278;12.398;2022-07-29T09:10:44;26.90;66.00
22002;DHT22;11165;51.278;12.398;2022-07-29T09:13:10;26.60;66.00
22002;DHT22;11165;51.278;12.398;2022-07-29T09:15:35;26.20;65.90
22002;DHT22;11165;51.278;12.398;2022-07-29T09:18:01;26.40;65.10
22002;DHT22;11165;51.278;12.398;2022-07-29T09:20:27;26.50;66.00
22002;DHT22;11165;51.278;12.398;2022-07-29T09:23:13;26.20;66.90
22002;DHT22;11165;51.278;12.398;2022-07-29T09:25:40;26.10;69.20
22002;DHT22;11165;51.278;12.398;2022-07-29T09:28:16;25.90;67.10
22002;DHT22;11165;51.278;12.398;2022-07-29T09:30:56;25.70;68.00
22002;DHT22;11165;51.278;12.398;2022-07-29T09:33:25;26.00;68.90
22002;DHT22;11165;51.278;12.398;2022-07-29T09:36:06;26.80;65.20
22002;DHT22;11165;51.278;12.398;2022-07-29T09:38:33;27.60;63.60
22002;DHT22;11165;51.278;12.398;2022-07-29T09:41:01;27.40;64.00
22002;DHT22;11165;51.278;12.398;2022-07-29T09:43:27;27.50;64.30
22002;DHT22;11165;51.278;12.398;2022-07-29T09:45:53;27.10;65.00
22002;DHT22;11165;51.278;12.398;2022-07-29T09:48:21;27.00;63.40
22002;DHT22;11165;51.278;12.398;2022-07-29T09:50:48;27.50;63.10
22002;DHT22;11165;51.278;12.398;2022-07-29T09:53:36;27.70;61.20
22002;DHT22;11165;51.278;12.398;2022-07-29T09:56:04;27.70;61.30
22002;DHT22;11165;51.278;12.398;2022-07-29T09:58:30;27.60;63.10
22002;DHT22;11165;51.278;12.398;2022-07-29T10:00:56;27.40;62.40
22002;DHT22;11165;51.278;12.398;2022-07-29T10:03:23;27.50;62.20
22002;DHT22;11165;51.278;12.398;2022-07-29T10:06:10;28.20;62.40
22002;DHT22;11165;51.278;12.398;2022-07-29T10:08:36;28.40;60.30
22002;DHT22;11165;51.278;12.398;2022-07-29T10:11:17;27.70;60.60
22002;DHT22;11165;51.278;12.398;2022-07-29T10:13:46;27.70;60.60
22002;DHT22;11165;51.278;12.398;2022-07-29T10:16:13;27.70;60.20
22002;DHT22;11165;51.278;12.398;2022-07-29T10:18:43;27.70;59.80
22002;DHT22;11165;51.278;12.398;2022-07-29T10:21:09;27.90;59.10
22002;DHT22;11165;51.278;12.398;2022-07-29T10:23:36;27.90;59.40
22002;DHT22;11165;51.278;12.398;2022-07-29T10:26:03;27.90;60.10
22002;DHT22;11165;51.278;12.398;2022-07-29T10:28:31;28.00;59.60
22002;DHT22;11165;51.278;12.398;2022-07-29T10:31:04;28.20;57.90
22002;DHT22;11165;51.278;12.398;2022-07-29T10:33:47;27.90;57.40
22002;DHT22;11165;51.278;12.398;2022-07-29T10:36:35;28.00;59.00
22002;DHT22;11165;51.278;12.398;2022-07-29T10:39:19;28.30;58.20
22002;DHT22;11165;51.278;12.398;2022-07-29T10:42:18;27.80;59.70
22002;DHT22;11165;51.278;12.398;2022-07-29T10:44:44;27.80;59.40
22002;DHT22;11165;51.278;12.398;2022-07-29T10:47:39;27.90;58.80
22002;DHT22;11165;51.278;12.398;2022-07-29T10:50:06;28.10;59.60
22002;DHT22;11165;51.278;12.398;2022-07-29T10:55:33;27.80;58.30
22002;DHT22;11165;51.278;12.398;2022-07-29T10:58:22;27.60;58.70
22002;DHT22;11165;51.278;12.398;2022-07-29T11:00:53;27.90;58.10
22002;DHT22;11165;51.278;12.398;2022-07-29T11:03:45;28.10;58.10
22002;DHT22;11165;51.278;12.398;2022-07-29T11:06:15;28.00;58.70
22002;DHT22;11165;51.278;12.398;2022-07-29T11:08:42;28.20;57.70
22002;DHT22;11165;51.278;12.398;2022-07-29T11:13:53;28.40;58.70
22002;DHT22;11165;51.278;12.398;2022-07-29T11:16:21;28.20;58.50
22002;DHT22;11165;51.278;12.398;2022-07-29T11:21:40;28.50;57.30
22002;DHT22;11165;51.278;12.398;2022-07-29T11:24:17;28.00;58.00
22002;DHT22;11165;51.278;12.398;2022-07-29T11:26:43;28.10;57.40
22002;DHT22;11165;51.278;12.398;2022-07-29T11:29:21;28.10;57.70
22002;DHT22;11165;51.278;12.398;2022-07-29T11:31:52;28.20;58.80
22002;DHT22;11165;51.278;12.398;2022-07-29T11:34:26;28.30;58.20
22002;DHT22;11165;51.278;12.398;2022-07-29T11:39:38;28.00;58.40
22002;DHT22;11165;51.278;12.398;2022-07-29T11:45:03;27.90;58.30
22002;DHT22;11165;51.278;12.398;2022-07-29T11:47:34;27.90;59.20
22002;DHT22;11165;51.278;12.398;2022-07-29T11:50:04;28.10;58.60
22002;DHT22;11165;51.278;12.398;2022-07-29T11:52:45;28.50;57.90
22002;DHT22;11165;51.278;12.398;2022-07-29T11:55:19;28.10;57.90
22002;DHT22;11165;51.278;12.398;2022-07-29T11:57:57;28.00;58.80
22002;DHT22;11165;51.278;12.398;2022-07-29T12:00:29;27.60;58.80
22002;DHT22;11165;51.278;12.398;2022-07-29T12:02:56;27.70;58.80
22002;DHT22;11165;51.278;12.398;2022-07-29T12:05:31;27.80;58.30
22002;DHT22;11165;51.278;12.398;2022-07-29T12:08:07;27.90;58.20
22002;DHT22;11165;51.278;12.398;2022-07-29T12:10:33;28.00;59.30
22002;DHT22;11165;51.278;12.398;2022-07-29T12:12:59;28.20;58.30
22002;DHT22;11165;51.278;12.398;2022-07-29T12:15:24;28.20;58.00
22002;DHT22;11165;51.278;12.398;2022-07-29T12:17:51;28.30;59.30
22002;DHT22;11165;51.278;12.398;2022-07-29T12:20:28;28.60;58.50
22002;DHT22;11165;51.278;12.398;2022-07-29T12:22:54;28.70;58.10
22002;DHT22;11165;51.278;12.398;2022-07-29T12:25:22;28.50;57.60
22002;DHT22;11165;51.278;12.398;2022-07-29T12:27:57;28.30;57.90
22002;DHT22;11165;51.278;12.398;2022-07-29T12:30:35;28.30;57.90
22002;DHT22;11165;51.278;12.398;2022-07-29T12:33:00;28.20;58.00
22002;DHT22;11165;51.278;12.398;2022-07-29T12:35:26;28.20;58.50
22002;DHT22;11165;51.278;12.398;2022-07-29T12:37:52;28.10;58.90
22002;DHT22;11165;51.278;12.398;2022-07-29T12:40:18;28.30;58.30
22002;DHT22;11165;51.278;12.398;2022-07-29T12:43:25;28.70;58.70
22002;DHT22;11165;51.278;12.398;2022-07-29T12:45:55;28.60;57.40
22002;DHT22;11165;51.278;12.398;2022-07-29T12:51:01;28.30;58.70
22002;DHT22;11165;51.278;12.398;2022-07-29T12:53:28;28.30;58.90
22002;DHT22;11165;51.278;12.398;2022-07-29T12:55:55;28.60;59.20
22002;DHT22;11165;51.278;12.398;2022-07-29T12:58:32;28.70;59.10
22002;DHT22;11165;51.278;12.398;2022-07-29T13:01:12;28.50;60.50
22002;DHT22;11165;51.278;12.398;2022-07-29T13:03:47;28.30;58.60
22002;DHT22;11165;51.278;12.398;2022-07-29T13:09:10;28.20;60.30
22002;DHT22;11165;51.278;12.398;2022-07-29T13:11:42;28.20;59.20
22002;DHT22;11165;51.278;12.398;2022-07-29T13:14:09;28.20;58.80
22002;DHT22;11165;51.278;12.398;2022-07-29T13:16:36;28.30;59.70
22002;DHT22;11165;51.278;12.398;2022-07-29T13:19:10;28.10;58.80
22002;DHT22;11165;51.278;12.398;2022-07-29T13:21:36;28.00;58.80
22002;DHT22;11165;51.278;12.398;2022-07-29T13:24:03;28.00;59.90
22002;DHT22;11165;51.278;12.398;2022-07-29T13:26:28;28.20;59.80
22002;DHT22;11165;51.278;12.398;2022-07-29T13:28:55;28.20;58.50
22002;DHT22;11165;51.278;12.398;2022-07-29T13:31:20;28.30;58.50
22002;DHT22;11165;51.278;12.398;2022-07-29T13:33:47;28.40;58.80
22002;DHT22;11165;51.278;12.398;2022-07-29T13:36:13;28.30;57.60
22002;DHT22;11165;51.278;12.398;2022-07-29T13:38:39;28.30;58.10
22002;DHT22;11165;51.278;12.398;2022-07-29T13:41:04;28.40;58.20
22002;DHT22;11165;51.278;12.398;2022-07-29T13:43:30;28.20;58.10
22002;DHT22;11165;51.278;12.398;2022-07-29T13:45:55;28.30;59.70
22002;DHT22;11165;51.278;12.398;2022-07-29T13:48:21;28.40;58.00
22002;DHT22;11165;51.278;12.398;2022-07-29T13:50:47;28.50;58.30
22002;DHT22;11165;51.278;12.398;2022-07-29T13:53:13;28.40;58.90
22002;DHT22;11165;51.278;12.398;2022-07-29T13:55:39;28.50;58.20
22002;DHT22;11165;51.278;12.398;2022-07-29T13:58:04;28.40;58.30
22002;DHT22;11165;51.278;12.398;2022-07-29T14:00:30;28.50;57.70
22002;DHT22;11165;51.278;12.398;2022-07-29T14:02:56;28.50;58.90
22002;DHT22;11165;51.278;12.398;2022-07-29T14:05:22;28.50;58.90
22002;DHT22;11165;51.278;12.398;2022-07-29T14:07:47;28.40;58.70
22002;DHT22;11165;51.278;12.398;2022-07-29T14:10:13;28.30;58.70
22002;DHT22;11165;51.278;12.398;2022-07-29T14:12:39;28.40;59.40
22002;DHT22;11165;51.278;12.398;2022-07-29T14:15:06;28.40;58.50
22002;DHT22;11165;51.278;12.398;2022-07-29T14:17:32;28.40;58.90
22002;DHT22;11165;51.278;12.398;2022-07-29T14:19:57;28.50;59.10
22002;DHT22;11165;51.278;12.398;2022-07-29T14:22:23;28.40;57.80
22002;DHT22;11165;51.278;12.398;2022-07-29T14:24:50;28.50;57.50
22002;DHT22;11165;51.278;12.398;2022-07-29T14:27:16;28.50;57.50
22002;DHT22;11165;51.278;12.398;2022-07-29T14:29:41;28.50;58.50
22002;DHT22;11165;51.278;12.398;2022-07-29T14:32:09;28.50;58.40
22002;DHT22;11165;51.278;12.398;2022-07-29T14:34:36;28.30;58.10
22002;DHT22;11165;51.278;12.398;2022-07-29T14:37:02;28.30;58.00
22002;DHT22;11165;51.278;12.398;2022-07-29T14:39:30;28.20;58.00
22002;DHT22;11165;51.278;12.398;2022-07-29T14:41:56;28.20;58.10
22002;DHT22;11165;51.278;12.398;2022-07-29T14:44:21;28.20;58.10
22002;DHT22;11165;51.278;12.398;2022-07-29T14:46:47;28.20;58.00
22002;DHT22;11165;51.278;12.398;2022-07-29T14:49:12;28.30;57.80
22002;DHT22;11165;51.278;12.398;2022-07-29T14:51:38;28.20;58.60
22002;DHT22;11165;51.278;12.398;2022-07-29T14:54:03;28.20;59.10
22002;DHT22;11165;51.278;12.398;2022-07-29T14:56:29;28.30;59.10
22002;DHT22;11165;51.278;12.398;2022-07-29T14:58:56;28.30;58.80
22002;DHT22;11165;51.278;12.398;2022-07-29T15:01:21;28.20;58.80
22002;DHT22;11165;51.278;12.398;2022-07-29T15:03:47;28.20;59.50
22002;DHT22;11165;51.278;12.398;2022-07-29T15:06:12;28.10;59.50
22002;DHT22;11165;51.278;12.398;2022-07-29T15:08:38;28.20;58.90
22002;DHT22;11165;51.278;12.398;2022-07-29T15:11:03;28.20;59.90
22002;DHT22;11165;51.278;12.398;2022-07-29T15:13:29;28.20;60.10
22002;DHT22;11165;51.278;12.398;2022-07-29T15:15:55;28.20;58.90
22002;DHT22;11165;51.278;12.398;2022-07-29T15:18:20;28.20;59.60
22002;DHT22;11165;51.278;12.398;2022-07-29T15:20:46;28.20;59.90
22002;DHT22;11165;51.278;12.398;2022-07-29T15:23:12;28.10;60.00
22002;DHT22;11165;51.278;12.398;2022-07-29T15:25:38;28.00;59.30
22002;DHT22;11165;51.278;12.398;2022-07-29T15:28:04;28.00;59.70
22002;DHT22;11165;51.278;12.398;2022-07-29T15:30:33;28.10;59.80
22002;DHT22;11165;51.278;12.398;2022-07-29T15:33:00;28.20;59.10
22002;DHT22;11165;51.278;12.398;2022-07-29T15:35:26;28.20;59.30
22002;DHT22;11165;51.278;12.398;2022-07-29T15:37:51;27.50;67.00
22002;DHT22;11165;51.278;12.398;2022-07-29T15:40:17;26.80;70.50
22002;DHT22;11165;51.278;12.398;2022-07-29T15:42:43;26.50;73.10
22002;DHT22;11165;51.278;12.398;2022-07-29T15:45:08;26.30;74.50
22002;DHT22;11165;51.278;12.398;2022-07-29T15:47:37;26.00;75.70
22002;DHT22;11165;51.278;12.398;2022-07-29T15:50:03;25.90;77.10
22002;DHT22;11165;51.278;12.398;2022-07-29T15:52:29;25.80;78.20
22002;DHT22;11165;51.278;12.398;2022-07-29T15:54:55;25.60;80.40
22002;DHT22;11165;51.278;12.398;2022-07-29T15:57:21;25.60;82.50
22002;DHT22;11165;51.278;12.398;2022-07-29T15:59:47;25.50;83.80